createdAt,value
2019-02-06T00:03:06.407Z,78.11
2019-02-06T00:08:12.381Z,78.23
2019-02-06T00:13:17.599Z,78.43
2019-02-06T00:18:23.403Z,78.35
2019-02-06T00:23:29.206Z,78.32
2019-02-06T00:28:34.890Z,78.23
2019-02-06T00:33:40.402Z,78.36
2019-02-06T00:38:45.808Z,78.50
2019-02-06T00:43:51.173Z,78.50
2019-02-06T00:48:56.752Z,78.64
2019-02-06T00:54:01.998Z,78.34
2019-02-06T00:59:08.202Z,78.65
2019-02-06T01:04:13.735Z,78.77
2019-02-06T01:09:19.404Z,78.71
2019-02-06T01:14:24.860Z,78.87
2019-02-06T01:19:30.099Z,79.00
2019-02-06T01:24:35.437Z,78.96
2019-02-06T01:29:41.057Z,78.81
2019-02-06T01:34:46.713Z,78.95
2019-02-06T01:39:51.966Z,78.94
2019-02-06T01:44:57.241Z,78.81
2019-02-06T01:50:02.583Z,78.95
2019-02-06T01:55:13.579Z,78.91
2019-02-06T02:00:21.345Z,79.13
2019-02-06T02:05:27.447Z,79.54
2019-02-06T02:10:33.029Z,79.64
2019-02-06T02:15:38.801Z,79.62
2019-02-06T02:20:44.360Z,79.52
2019-02-06T02:25:50.032Z,79.35
2019-02-06T02:30:55.957Z,79.32
2019-02-06T02:36:14.295Z,79.01
2019-02-06T02:41:08.365Z,78.84
2019-02-06T02:46:13.916Z,79.02
2019-02-06T02:51:19.597Z,79.12
2019-02-06T02:56:25.109Z,79.17
2019-02-06T03:01:36.222Z,79.32
2019-02-06T03:06:43.447Z,79.65
2019-02-06T03:11:50.005Z,79.54
2019-02-06T03:16:55.589Z,79.48
2019-02-06T03:22:00.947Z,79.54
2019-02-06T03:27:06.165Z,79.58
2019-02-06T03:32:11.412Z,79.59
2019-02-06T03:37:16.559Z,79.41
2019-02-06T03:42:22.141Z,79.60
2019-02-06T03:47:27.645Z,79.43
2019-02-06T03:52:33.523Z,79.47
2019-02-06T03:57:39.693Z,79.39
2019-02-06T04:02:45.050Z,79.37
2019-02-06T04:07:50.233Z,78.93
2019-02-06T04:12:55.904Z,78.94
2019-02-06T04:18:01.280Z,78.91
2019-02-06T04:23:06.692Z,78.87
2019-02-06T04:28:12.562Z,78.88
2019-02-06T04:33:17.932Z,78.75
2019-02-06T04:38:23.582Z,78.56
2019-02-06T04:43:29.234Z,78.57
2019-02-06T04:48:34.614Z,78.44
2019-02-06T04:53:40.283Z,78.32
2019-02-06T04:58:45.833Z,78.00
2019-02-06T05:03:52.342Z,77.93
2019-02-06T05:08:57.773Z,77.75
2019-02-06T05:14:03.179Z,77.82
2019-02-06T05:19:08.625Z,77.66
2019-02-06T05:24:14.167Z,77.82
2019-02-06T05:29:19.629Z,77.53
2019-02-06T05:34:24.890Z,76.88
2019-02-06T05:39:30.246Z,76.85
2019-02-06T05:44:35.399Z,76.91
2019-02-06T05:49:40.784Z,76.65
2019-02-06T05:54:46.319Z,76.62
2019-02-06T05:59:51.564Z,76.51
2019-02-06T06:04:57.081Z,76.75
2019-02-06T06:10:02.400Z,76.72
2019-02-06T06:15:09.418Z,76.36
2019-02-06T06:20:17.516Z,75.89
2019-02-06T06:25:22.878Z,75.51
2019-02-06T06:30:28.058Z,75.23
2019-02-06T06:35:33.762Z,75.46
2019-02-06T06:40:39.293Z,75.57
2019-02-06T06:45:44.667Z,75.99
2019-02-06T06:50:50.186Z,75.99
2019-02-06T06:55:55.850Z,76.07
2019-02-06T07:01:01.319Z,76.26
2019-02-06T07:06:07.083Z,76.68
2019-02-06T07:11:12.545Z,76.82
2019-02-06T07:16:17.797Z,76.88
2019-02-06T07:21:23.140Z,77.02
2019-02-06T07:26:28.730Z,76.76
2019-02-06T07:31:34.752Z,77.14
2019-02-06T07:36:40.138Z,76.90
2019-02-06T07:41:45.930Z,76.28
2019-02-06T07:46:51.585Z,76.57
2019-02-06T07:51:56.846Z,76.63
2019-02-06T07:57:02.730Z,75.68
2019-02-06T08:02:08.277Z,75.56
2019-02-06T08:07:13.636Z,74.85
2019-02-06T08:12:19.826Z,74.59
2019-02-06T08:17:25.727Z,74.21
2019-02-06T08:22:31.192Z,74.11
2019-02-06T08:27:36.572Z,72.97
2019-02-06T08:32:41.760Z,72.43
2019-02-06T08:37:47.432Z,72.66
2019-02-06T08:42:52.993Z,71.86
2019-02-06T08:47:58.371Z,71.97
2019-02-06T08:53:04.735Z,71.87
2019-02-06T08:58:10.100Z,72.41
2019-02-06T09:03:15.765Z,72.90
2019-02-06T09:08:21.490Z,73.73
2019-02-06T09:13:26.892Z,74.13
2019-02-06T09:18:32.354Z,73.73
2019-02-06T09:23:37.818Z,73.35
2019-02-06T09:28:43.473Z,73.03
2019-02-06T09:33:48.840Z,73.96
2019-02-06T09:38:54.086Z,73.83
2019-02-06T09:43:59.340Z,73.80
2019-02-06T09:49:05.016Z,72.69
2019-02-06T09:54:11.210Z,71.78
2019-02-06T09:59:16.554Z,71.75
2019-02-06T10:04:21.910Z,72.24
2019-02-06T10:09:27.307Z,71.79
2019-02-06T10:14:32.825Z,70.81
2019-02-06T10:19:38.372Z,70.68
2019-02-06T10:24:43.858Z,71.18
2019-02-06T10:29:49.627Z,71.35
2019-02-06T10:34:55.299Z,71.15
2019-02-06T10:40:00.684Z,70.82
2019-02-06T10:45:09.133Z,71.23
2019-02-06T10:50:27.444Z,70.78
2019-02-06T10:55:32.913Z,70.83
2019-02-06T11:00:47.262Z,71.45
2019-02-06T11:05:52.723Z,69.79
2019-02-06T11:10:58.196Z,69.71
2019-02-06T11:16:03.762Z,68.31
2019-02-06T11:21:09.039Z,68.97
2019-02-06T11:26:14.989Z,68.07
2019-02-06T11:31:22.085Z,67.46
2019-02-06T11:36:28.061Z,66.96
2019-02-06T11:41:34.763Z,67.49
2019-02-06T11:46:40.463Z,67.76
2019-02-06T11:51:46.101Z,67.72
2019-02-06T11:56:51.334Z,66.97
2019-02-06T12:01:56.832Z,67.76
2019-02-06T12:07:02.359Z,68.09
2019-02-06T12:12:07.930Z,67.94
2019-02-06T12:17:13.394Z,68.40
2019-02-06T12:22:20.118Z,69.53
2019-02-06T12:27:25.444Z,69.21
2019-02-06T12:32:31.008Z,68.00
2019-02-06T12:37:36.970Z,67.82
2019-02-06T12:42:42.638Z,66.98
2019-02-06T12:47:48.106Z,66.80
2019-02-06T12:52:57.091Z,65.92
2019-02-06T12:58:01.293Z,64.29
2019-02-06T13:03:06.900Z,63.56
2019-02-06T13:08:12.516Z,64.27
2019-02-06T13:13:18.698Z,63.80
2019-02-06T13:18:24.515Z,65.15
2019-02-06T13:23:30.435Z,65.99
2019-02-06T13:28:35.967Z,66.40
2019-02-06T13:33:41.247Z,66.16
2019-02-06T13:38:46.601Z,65.92
2019-02-06T13:43:51.967Z,66.45
2019-02-06T13:48:57.522Z,66.22
2019-02-06T13:54:03.319Z,66.20
2019-02-06T13:59:08.757Z,66.15
2019-02-06T14:04:14.119Z,65.57
2019-02-06T14:09:22.828Z,65.55
2019-02-06T14:14:27.183Z,65.40
2019-02-06T14:19:32.664Z,65.64
2019-02-06T14:24:40.983Z,65.67
2019-02-06T14:30:20.768Z,65.60
2019-02-06T14:35:32.195Z,65.86
2019-02-06T14:40:49.503Z,66.60
2019-02-06T14:46:09.452Z,66.49
2019-02-06T14:51:24.127Z,66.70
2019-02-06T14:56:38.415Z,66.91
2019-02-06T15:01:52.589Z,66.29
2019-02-06T15:07:03.446Z,66.67
2019-02-06T15:12:37.625Z,66.25
2019-02-06T15:17:51.469Z,66.48
2019-02-06T15:23:12.109Z,66.61
2019-02-06T15:28:30.228Z,66.85
2019-02-06T15:33:41.968Z,66.90
2019-02-06T15:38:52.927Z,67.04
2019-02-06T15:44:13.686Z,67.38
2019-02-06T15:49:31.104Z,67.74
2019-02-06T15:54:56.542Z,68.07
2019-02-06T16:00:27.434Z,67.85
2019-02-06T16:06:01.599Z,67.95
2019-02-06T16:11:19.188Z,68.14
2019-02-06T16:16:45.630Z,68.43
2019-02-06T16:22:00.969Z,68.50
2019-02-06T16:27:15.234Z,68.79
2019-02-06T16:32:46.321Z,68.89
2019-02-06T16:38:04.107Z,68.76
2019-02-06T16:43:32.190Z,68.64
2019-02-06T16:48:46.455Z,68.80
2019-02-06T16:53:57.344Z,68.48
2019-02-06T16:59:30.265Z,68.53
2019-02-06T17:04:50.743Z,68.57
2019-02-06T17:10:22.148Z,68.53
2019-02-06T17:15:47.179Z,68.72
2019-02-06T17:21:01.354Z,68.71
2019-02-06T17:26:15.958Z,68.63
2019-02-06T17:31:43.943Z,68.37
2019-02-06T17:36:54.766Z,68.82
2019-02-06T17:42:16.121Z,68.54
2019-02-06T17:47:42.796Z,68.69
2019-02-06T17:52:59.366Z,68.41
2019-02-06T17:58:06.700Z,68.43
2019-02-06T18:03:15.084Z,68.43
2019-02-06T18:08:20.782Z,68.22
2019-02-06T18:13:26.370Z,67.80
2019-02-06T18:18:32.134Z,67.37
2019-02-06T18:23:37.535Z,67.07
2019-02-06T18:28:43.472Z,66.50
2019-02-06T18:33:49.131Z,66.64
2019-02-06T18:38:54.482Z,67.00
2019-02-06T18:44:00.048Z,66.61
2019-02-06T18:49:06.121Z,66.56
2019-02-06T18:54:11.586Z,66.40
2019-02-06T18:59:16.839Z,66.02
2019-02-06T19:04:22.068Z,66.08
2019-02-06T19:09:28.966Z,66.21
2019-02-06T19:14:34.299Z,65.64
2019-02-06T19:19:39.899Z,66.42
2019-02-06T19:24:45.086Z,65.85
2019-02-06T19:29:51.430Z,65.47
2019-02-06T19:34:56.794Z,65.00
2019-02-06T19:40:02.310Z,65.14
2019-02-06T19:45:13.146Z,65.28
2019-02-06T19:50:27.531Z,64.87
2019-02-06T19:55:32.779Z,65.20
2019-02-06T20:00:38.570Z,65.18
2019-02-06T20:05:44.626Z,64.81
2019-02-06T20:10:52.150Z,65.69
2019-02-06T20:15:57.947Z,65.17
2019-02-06T20:21:03.259Z,64.94
2019-02-06T20:26:09.031Z,65.30
2019-02-06T20:31:14.691Z,64.82
2019-02-06T20:36:20.046Z,64.82
2019-02-06T20:41:25.270Z,65.20
2019-02-06T20:46:30.639Z,65.35
2019-02-06T20:51:37.161Z,65.08
2019-02-06T20:56:42.710Z,64.94
2019-02-06T21:01:47.966Z,64.82
2019-02-06T21:06:53.321Z,65.07
2019-02-06T21:11:58.470Z,65.21
2019-02-06T21:17:04.659Z,65.21
2019-02-06T21:22:10.512Z,65.05
2019-02-06T21:27:17.212Z,65.30
2019-02-06T21:32:22.328Z,65.06
2019-02-06T21:37:27.462Z,65.21
2019-02-06T21:42:32.647Z,65.80
2019-02-06T21:47:38.195Z,65.54
2019-02-06T21:52:44.856Z,65.63
2019-02-06T21:57:51.376Z,65.69
2019-02-06T22:02:57.065Z,65.97
2019-02-06T22:08:02.387Z,66.08
2019-02-06T22:13:07.584Z,66.05
2019-02-06T22:18:12.849Z,65.96
2019-02-06T22:23:18.420Z,66.03
2019-02-06T22:28:23.882Z,65.72
2019-02-06T22:33:29.238Z,65.82
2019-02-06T22:38:34.911Z,65.48
2019-02-06T22:43:40.478Z,65.91
2019-02-06T22:48:45.912Z,65.92
2019-02-06T22:53:51.193Z,65.50
2019-02-06T22:58:56.710Z,65.61
2019-02-06T23:04:02.306Z,65.61
2019-02-06T23:09:08.359Z,64.83
2019-02-06T23:14:17.446Z,64.51
2019-02-06T23:19:20.721Z,63.83
2019-02-06T23:24:26.418Z,64.29
2019-02-06T23:29:32.105Z,64.15
2019-02-06T23:34:37.899Z,64.42
2019-02-06T23:39:43.493Z,64.51
2019-02-06T23:44:48.586Z,64.33
2019-02-06T23:49:53.763Z,64.76
2019-02-06T23:54:58.967Z,64.65
